^^
Grace C. Lehan Memorial Weather Station Historical Data
Daily Summary for August 11, 2022 Units:  Metric    English   Both
Daily Weekly Monthly Yearly
  High: Low: Average:
Temperature: 31.7 °C 20.8 °C 25.7 °C
Dew Point: 19.7 °C 15.6 °C 17.6 °C
Humidity: 83% 41.6% 63%
Wind Speed: 6.6km/h 0km/h 0.5km/h
Wind Gust: 24.1km/h - -
Wind- - South
Pressure: 1014.1 hPa 1008.4 hPa -
Precipitation: 0.25 mm    
 
 
Tabular Data for August 11, 2022
Time Temperature Dew Point Pressure Wind Wind Speed Wind Gust Humidity Rainfall Rate (Hourly) solar
00:00 22.9 °C 16.7 °C 1014.1 hPa Calm     68% 0 mm 0 W/m2
00:09 22.9 °C 17.2 °C 1014.1 hPa Calm     69.9% 0 mm 0 W/m2
00:14 22.9 °C 17.2 °C 1014.1 hPa Calm     70.1% 0 mm 0 W/m2
00:19 22.9 °C 17.2 °C 1014.1 hPa Calm     70.2% 0 mm 0 W/m2
00:24 22.9 °C 17.3 °C 1014.1 hPa Calm     70.6% 0 mm 0 W/m2
00:29 22.9 °C 17.5 °C 1014.1 hPa Calm     71.5% 0 mm 0 W/m2
00:34 22.9 °C 17.6 °C 1014.1 hPa Calm     72% 0 mm 0 W/m2
00:39 22.9 °C 17.6 °C 1013.8 hPa Calm     72% 0 mm 0 W/m2
00:44 22.9 °C 17.6 °C 1013.8 hPa Calm     72% 0 mm 0 W/m2
00:49 22.9 °C 17.6 °C 1013.8 hPa Calm     72% 0 mm 0 W/m2
00:54 22.9 °C 17.7 °C 1013.8 hPa Calm     72.3% 0 mm 0 W/m2
00:59 22.9 °C 17.6 °C 1013.8 hPa Calm     72.2% 0 mm 0 W/m2
01:04 22.9 °C 17.6 °C 1013.8 hPa Calm     72% 0 mm 0 W/m2
01:09 22.8 °C 17.6 °C 1013.8 hPa Calm     72.4% 0 mm 0 W/m2
01:14 22.8 °C 17.7 °C 1013.8 hPa Calm     73% 0 mm 0 W/m2
01:19 22.8 °C 17.7 °C 1013.8 hPa Calm     73% 0 mm 0 W/m2
01:24 22.8 °C 17.7 °C 1013.8 hPa Calm     73% 0 mm 0 W/m2
01:29 22.8 °C 17.7 °C 1013.8 hPa Calm     73% 0 mm 0 W/m2
01:34 22.8 °C 17.7 °C 1013.4 hPa Calm     73% 0 mm 0 W/m2
01:39 22.8 °C 17.7 °C 1013.4 hPa Calm     73% 0 mm 0 W/m2
01:44 22.8 °C 17.9 °C 1013.4 hPa Calm     73.7% 0 mm 0 W/m2
01:49 22.8 °C 17.9 °C 1013.4 hPa Calm     74% 0 mm 0 W/m2
01:54 22.8 °C 17.9 °C 1013.4 hPa Calm     74% 0 mm 0 W/m2
01:59 22.8 °C 17.9 °C 1013.4 hPa Calm     74% 0 mm 0 W/m2
02:04 22.8 °C 18 °C 1013.4 hPa Calm     74.4% 0 mm 0 W/m2
02:09 22.8 °C 18.1 °C 1013.4 hPa Calm     75% 0 mm 0 W/m2
02:14 22.7 °C 18.1 °C 1013.4 hPa Calm     75% 0 mm 0 W/m2
02:19 22.7 °C 18.1 °C 1013.4 hPa Calm     75% 0 mm 0 W/m2
02:24 22.7 °C 18 °C 1013.4 hPa Calm     75% 0 mm 0 W/m2
02:29 22.6 °C 18.1 °C 1013.1 hPa Calm     75.8% 0 mm 0 W/m2
02:34 22.6 °C 18.1 °C 1013.1 hPa Calm     76% 0 mm 0 W/m2
02:39 22.6 °C 18.1 °C 1013.1 hPa Calm     76% 0 mm 0 W/m2
02:44 22.6 °C 18 °C 1013.1 hPa Calm     75.6% 0 mm 0 W/m2
02:49 22.5 °C 17.8 °C 1013.1 hPa Calm     75% 0 mm 0 W/m2
02:54 22.4 °C 17.8 °C 1013.1 hPa Calm     75% 0 mm 0 W/m2
02:59 22.4 °C 17.8 °C 1013.1 hPa Calm     75% 0 mm 0 W/m2
03:04 22.4 °C 17.9 °C 1013.1 hPa Calm     75.5% 0 mm 0 W/m2
03:09 22.4 °C 18 °C 1012.8 hPa Calm     76% 0 mm 0 W/m2
03:14 22.4 °C 17.8 °C 1012.8 hPa Calm     75.2% 0 mm 0 W/m2
03:19 22.4 °C 17.8 °C 1012.8 hPa Calm     75% 0 mm 0 W/m2
03:24 22.4 °C 17.7 °C 1012.8 hPa Calm     75% 0 mm 0 W/m2
03:29 22.4 °C 17.7 °C 1012.8 hPa Calm     75% 0 mm 0 W/m2
03:34 22.3 °C 17.7 °C 1012.8 hPa Calm     75% 0 mm 0 W/m2
03:38 22.3 °C 17.7 °C 1012.4 hPa Calm     75% 0 mm 0 W/m2
04:09 21.9 °C 17.3 °C 1012.1 hPa Calm     75% 0 mm 0 W/m2
04:14 21.8 °C 17.4 °C 1012.1 hPa Calm     76% 0 mm 0 W/m2
04:19 21.7 °C 17.3 °C 1012.1 hPa Calm     76% 0 mm 0 W/m2
04:24 21.6 °C 17.2 °C 1012.1 hPa Calm     76% 0 mm 0 W/m2
04:29 21.6 °C 17.2 °C 1012.1 hPa Calm     76.2% 0 mm 0 W/m2
04:34 21.4 °C 17.3 °C 1012.1 hPa Calm     77% 0 mm 0 W/m2
04:39 21.4 °C 17.2 °C 1012.1 hPa Calm     77% 0 mm 0 W/m2
04:44 21.3 °C 17.3 °C 1012.1 hPa Calm     77.6% 0 mm 0 W/m2
04:49 21.3 °C 17.3 °C 1012.1 hPa Calm     78% 0 mm 0 W/m2
04:54 21.2 °C 17.2 °C 1012.1 hPa Calm     78% 0 mm 0 W/m2
04:59 21.1 °C 17.2 °C 1012.1 hPa Calm     78.1% 0 mm 0 W/m2
05:04 21.1 °C 17.3 °C 1012.1 hPa Calm     79% 0 mm 0 W/m2
05:09 21 °C 17.2 °C 1012.1 hPa Calm     79% 0 mm 0 W/m2
05:14 20.9 °C 17.1 °C 1011.7 hPa Calm     79% 0 mm 0 W/m2
05:19 20.8 °C 17.2 °C 1011.7 hPa Calm     79.7% 0 mm 0 W/m2
05:24 20.8 °C 17.3 °C 1011.7 hPa Calm     80% 0 mm 0 W/m2
05:29 20.8 °C 17.2 °C 1011.7 hPa Calm     80% 0 mm 0 W/m2
05:34 20.8 °C 17.2 °C 1011.7 hPa Calm     80% 0 mm 0 W/m2
05:39 20.8 °C 17.2 °C 1011.7 hPa Calm     80% 0 mm 0 W/m2
05:44 20.8 °C 17.2 °C 1011.7 hPa Calm     80.2% 0 mm 0 W/m2
05:49 20.8 °C 17.4 °C 1012.1 hPa Calm     81% 0 mm 0 W/m2
05:54 20.8 °C 17.4 °C 1012.1 hPa Calm     81% 0 mm 0 W/m2
05:59 20.9 °C 17.6 °C 1012.1 hPa Calm     81.2% 0 mm 0 W/m2
06:04 20.9 °C 17.7 °C 1012.1 hPa Calm     81.9% 0 mm 5 W/m2
06:09 20.9 °C 17.8 °C 1012.1 hPa Calm     82% 0 mm 5 W/m2
06:14 20.9 °C 17.7 °C 1012.1 hPa Calm     81.6% 0 mm 7 W/m2
06:19 21 °C 17.8 °C 1012.1 hPa Calm     81.8% 0 mm 7 W/m2
06:24 21 °C 17.8 °C 1012.1 hPa Calm     82% 0 mm 9 W/m2
06:29 21.1 °C 17.8 °C 1012.1 hPa Calm     82% 0 mm 11 W/m2
06:34 21.1 °C 17.7 °C 1012.1 hPa Calm     81.2% 0 mm 11 W/m2
06:39 21.1 °C 17.7 °C 1012.1 hPa Calm     81% 0 mm 18 W/m2
06:44 21.2 °C 17.8 °C 1012.1 hPa Calm     81% 0 mm 23 W/m2
06:49 21.2 °C 17.6 °C 1012.1 hPa Calm     80.1% 0 mm 23 W/m2
06:54 21.2 °C 17.7 °C 1012.1 hPa Calm     80% 0 mm 23 W/m2
06:59 21.3 °C 17.6 °C 1012.1 hPa Calm     79.5% 0 mm 30 W/m2
07:04 21.3 °C 17.6 °C 1012.1 hPa Calm     79.2% 0 mm 42 W/m2
07:09 21.3 °C 17.6 °C 1012.1 hPa Calm     79% 0 mm 51 W/m2
07:14 21.3 °C 17.4 °C 1012.1 hPa Calm     78.2% 0 mm 56 W/m2
07:19 21.4 °C 17.4 °C 1012.1 hPa Calm     78% 0 mm 69 W/m2
07:24 21.4 °C 17.2 °C 1012.1 hPa Calm     77.1% 0 mm 69 W/m2
07:29 21.5 °C 17.3 °C 1012.1 hPa Calm     77% 0 mm 67 W/m2
07:34 21.6 °C 17.4 °C 1012.1 hPa Calm     77.4% 0 mm 74 W/m2
07:39 21.7 °C 17.5 °C 1012.1 hPa Calm     77.3% 0 mm 90 W/m2
07:44 21.7 °C 17.7 °C 1012.1 hPa Calm     77.8% 0 mm 105 W/m2
07:49 21.9 °C 17.9 °C 1012.1 hPa Calm     78.3% 0 mm 107 W/m2
07:54 21.9 °C 17.9 °C 1012.1 hPa Calm     77.8% 0 mm 100 W/m2
07:59 22.1 °C 17.9 °C 1012.1 hPa Calm     77.2% 0 mm 107 W/m2
08:00 22.1 °C 17.9 °C 1012.1 hPa Calm     77% 0 mm 107 W/m2
08:09 22.3 °C 18.3 °C 1012.1 hPa Calm     78% 0 mm 153 W/m2
08:14 22.4 °C 18.4 °C 1012.1 hPa Calm     78% 0 mm 158 W/m2
08:19 22.6 °C 18.4 °C 1012.1 hPa Calm     77.7% 0 mm 146 W/m2
08:24 22.7 °C 18.4 °C 1012.1 hPa Calm     77% 0 mm 118 W/m2
08:29 22.8 °C 18.6 °C 1012.1 hPa Calm     77.5% 0 mm 120 W/m2
08:34 22.8 °C 18.6 °C 1012.1 hPa Calm     77.2% 0 mm 118 W/m2
08:39 22.9 °C 18.7 °C 1012.1 hPa Calm     77.5% 0 mm 114 W/m2
08:44 22.9 °C 18.6 °C 1012.1 hPa Calm     76.8% 0 mm 111 W/m2
08:49 22.9 °C 18.7 °C 1012.1 hPa Calm     77% 0 mm 113 W/m2
08:54 22.9 °C 18.7 °C 1011.7 hPa Calm     76.8% 0 mm 121 W/m2
08:59 23 °C 18.7 °C 1011.7 hPa Calm     76.5% 0 mm 125 W/m2
09:04 23 °C 18.4 °C 1011.7 hPa Calm     75.5% 0 mm 132 W/m2
09:09 22.9 °C 18.3 °C 1011.7 hPa Calm     75% 0 mm 139 W/m2
09:14 22.9 °C 18.3 °C 1011.7 hPa Calm     75.2% 0 mm 144 W/m2
09:19 22.9 °C 18.4 °C 1012.1 hPa Calm     75.8% 0 mm 149 W/m2
09:24 23 °C 18.6 °C 1011.7 hPa Calm     76.1% 0 mm 162 W/m2
09:29 23.1 °C 18.8 °C 1011.7 hPa Calm     76.8% 0 mm 190 W/m2
09:34 23.2 °C 18.7 °C 1011.7 hPa Calm     76% 0 mm 230 W/m2
09:39 23.3 °C 18.8 °C 1011.7 hPa Calm     76% 0 mm 267 W/m2
09:44 23.4 °C 19.1 °C 1011.7 hPa Calm     76.7% 0 mm 267 W/m2
09:49 23.6 °C 19.1 °C 1011.7 hPa Calm     75.7% 0 mm 264 W/m2
09:54 23.7 °C 18.9 °C 1011.7 hPa Calm     75% 0 mm 257 W/m2
09:59 23.8 °C 19.2 °C 1011.7 hPa Calm     75.7% 0 mm 318 W/m2
10:04 23.8 °C 19.2 °C 1011.7 hPa Calm     75.3% 0 mm 318 W/m2
10:09 24 °C 19.7 °C 1011.4 hPa Calm     76.9% 0 mm 274 W/m2
10:14 24.2 °C 19.3 °C 1011.4 hPa Calm     74.5% 0 mm 362 W/m2
10:19 24.3 °C 18.9 °C 1011.4 hPa Calm     71.7% 0 mm 439 W/m2
10:24 24.6 °C 19.1 °C 1011.4 hPa Calm     71.5% 0 mm 452 W/m2
10:29 24.8 °C 18.6 °C 1011.4 hPa Calm     68.1% 0 mm 464 W/m2
10:34 25.1 °C 18.4 °C 1011.4 hPa Calm   1.6 km/h 66.5% 0 mm 490 W/m2
10:39 25.2 °C 17.9 °C 1011.4 hPa NE 0.3 km/h 3.2 km/h 63.7% 0 mm 359 W/m2
10:44 25.3 °C 17.6 °C 1011.4 hPa Calm   3.2 km/h 62.3% 0 mm 459 W/m2
10:49 25.5 °C 17.8 °C 1011.4 hPa Calm   3.2 km/h 62.4% 0 mm 654 W/m2
10:54 25.8 °C 18.1 °C 1011.4 hPa North 1.1 km/h 6.4 km/h 62.5% 0 mm 872 W/m2
10:59 26.3 °C 18.1 °C 1011.4 hPa North 0.6 km/h 6.4 km/h 60.6% 0 mm 547 W/m2
11:04 26.7 °C 18.1 °C 1011.4 hPa NNE 1.1 km/h 6.4 km/h 59.4% 0 mm 698 W/m2
11:09 26.9 °C 17.9 °C 1011.4 hPa NNE 0.2 km/h 3.2 km/h 57.9% 0 mm 698 W/m2
11:14 27 °C 17.8 °C 1011.1 hPa NNE 0.2 km/h 3.2 km/h 57.1% 0 mm 777 W/m2
11:19 27.2 °C 18.1 °C 1011.1 hPa NNE 1.3 km/h 8 km/h 57.3% 0 mm 780 W/m2
11:24 27.6 °C 17.7 °C 1011.1 hPa ENE 1.9 km/h 8 km/h 55% 0 mm 800 W/m2
11:29 27.7 °C 17.4 °C 1011.1 hPa East 0.3 km/h 8 km/h 53.6% 0 mm 786 W/m2
11:34 27.8 °C 17.8 °C 1011.1 hPa ENE 0.6 km/h 8 km/h 54.6% 0 mm 779 W/m2
11:39 28.1 °C 17.8 °C 1011.1 hPa ENE 1 km/h 4.8 km/h 53.8% 0 mm 585 W/m2
11:44 28.2 °C 17.9 °C 1011.1 hPa NE 0.5 km/h 4.8 km/h 53.8% 0 mm 1051 W/m2
11:49 28.4 °C 17.9 °C 1011.1 hPa ENE 1 km/h 6.4 km/h 53.1% 0 mm 1014 W/m2
11:54 28.8 °C 17.3 °C 1011.1 hPa ENE 1 km/h 6.4 km/h 50.2% 0 mm 1014 W/m2
11:59 29 °C 17.9 °C 1011.1 hPa ENE 0.8 km/h 6.4 km/h 51.1% 0 mm 962 W/m2
12:00 29.1 °C 17.3 °C 1011.1 hPa Calm   6.4 km/h 49% 0 mm 513 W/m2
12:09 28.7 °C 17.2 °C 1011.1 hPa ENE 1.3 km/h 6.4 km/h 49.7% 0 mm 480 W/m2
12:14 28.4 °C 16.9 °C 1011.1 hPa ENE 1 km/h 6.4 km/h 49.7% 0 mm 555 W/m2
12:19 28.3 °C 16.9 °C 1011.1 hPa Calm   6.4 km/h 50.1% 0 mm 568 W/m2
12:24 28.2 °C 17.7 °C 1011.1 hPa ENE 0.3 km/h 6.4 km/h 53.1% 0 mm 406 W/m2
12:29 28.3 °C 18.2 °C 1011.1 hPa ENE 0.5 km/h 6.4 km/h 54.2% 0 mm 394 W/m2
12:34 28.4 °C 18.1 °C 1011.1 hPa ENE 1 km/h 6.4 km/h 53.4% 0 mm 837 W/m2
12:39 28.6 °C 18.1 °C 1010.7 hPa ENE 1.1 km/h 6.4 km/h 53% 0 mm 724 W/m2
12:44 28.6 °C 17.6 °C 1010.7 hPa ENE 0.2 km/h 6.4 km/h 51.3% 0 mm 724 W/m2
12:49 28.4 °C 17.3 °C 1010.7 hPa ENE 0.3 km/h 6.4 km/h 50.9% 0 mm 362 W/m2
12:54 28.2 °C 16.8 °C 1010.7 hPa ENE 0.6 km/h 6.4 km/h 50.2% 0 mm 696 W/m2
12:59 27.9 °C 17 °C 1010.7 hPa ENE 0.3 km/h 6.4 km/h 51.4% 0 mm 1116 W/m2
13:04 28.2 °C 17.6 °C 1010.7 hPa Calm   6.4 km/h 52.6% 0 mm 810 W/m2
13:09 28.5 °C 17.6 °C 1010.4 hPa ENE 0.2 km/h 3.2 km/h 51.4% 0 mm 1202 W/m2
13:14 28.8 °C 18 °C 1010.4 hPa NW 2.7 km/h 8 km/h 51.9% 0 mm 865 W/m2
13:19 29.2 °C 17.8 °C 1010.4 hPa West 1.8 km/h 8 km/h 50.1% 0 mm 657 W/m2
13:24 29.4 °C 17.9 °C 1010.4 hPa Calm   8 km/h 50.2% 0 mm 487 W/m2
13:29 29.4 °C 17.8 °C 1010.4 hPa West 0.3 km/h 8 km/h 49.6% 0 mm 485 W/m2
13:34 29.6 °C 17.7 °C 1010 hPa Calm   8 km/h 48.9% 0 mm 520 W/m2
13:39 29.5 °C 17.7 °C 1010 hPa West 0.6 km/h 4.8 km/h 49% 0 mm 520 W/m2
13:44 29.4 °C 17.4 °C 1010 hPa Calm   4.8 km/h 48.3% 0 mm 439 W/m2
13:49 29.4 °C 17.5 °C 1010 hPa Calm   4.8 km/h 48.7% 0 mm 399 W/m2
13:54 29.6 °C 17.8 °C 1009.7 hPa WNW 0.8 km/h 6.4 km/h 49.4% 0 mm 1086 W/m2
13:59 29.7 °C 17.7 °C 1009.7 hPa WNW 0.8 km/h 6.4 km/h 48.6% 0 mm 1086 W/m2
14:04 29.8 °C 17.3 °C 1009.7 hPa WNW 0.3 km/h 6.4 km/h 47% 0 mm 1032 W/m2
14:09 29.8 °C 17.4 °C 1009.7 hPa WNW 0.5 km/h 6.4 km/h 47.4% 0 mm 1004 W/m2
14:14 29.9 °C 17.1 °C 1009.7 hPa Calm   6.4 km/h 46.2% 0 mm 626 W/m2
14:19 30.1 °C 17.6 °C 1009.7 hPa WSW 1.1 km/h 9.7 km/h 47.3% 0 mm 1037 W/m2
14:24 30.2 °C 17.8 °C 1009.7 hPa WSW 0.8 km/h 9.7 km/h 47.5% 0 mm 788 W/m2
14:29 30.3 °C 18.1 °C 1009.7 hPa West 0.3 km/h 9.7 km/h 48.2% 0 mm 788 W/m2
14:34 30.4 °C 17.8 °C 1009.7 hPa Calm   9.7 km/h 46.8% 0 mm 701 W/m2
14:39 30.5 °C 17.8 °C 1009.4 hPa West 0.3 km/h 4.8 km/h 46.5% 0 mm 701 W/m2
14:44 30.6 °C 17.8 °C 1009.4 hPa Calm   4.8 km/h 46.7% 0 mm 541 W/m2
14:49 30.6 °C 18.1 °C 1009.4 hPa WSW 1 km/h 16.1 km/h 47.2% 0 mm 1053 W/m2
14:54 30.7 °C 17.8 °C 1009.4 hPa SW 0.8 km/h 16.1 km/h 46% 0 mm 1067 W/m2
14:59 30.8 °C 17.4 °C 1009.4 hPa SSW 1.6 km/h 16.1 km/h 44.8% 0 mm 858 W/m2
15:04 31 °C 17.8 °C 1009.4 hPa WSW 1.3 km/h 16.1 km/h 45.5% 0 mm 826 W/m2
15:09 31.2 °C 17.8 °C 1009.4 hPa WSW 2.6 km/h 20.9 km/h 44.7% 0 mm 826 W/m2
15:14 31.4 °C 17.8 °C 1009.4 hPa West 0.3 km/h 20.9 km/h 44.1% 0 mm 680 W/m2
15:19 31.6 °C 17.9 °C 1009.4 hPa West 0.2 km/h 20.9 km/h 44.2% 0 mm 652 W/m2
15:24 31.7 °C 17.4 °C 1009.4 hPa WNW 1.8 km/h 20.9 km/h 42.7% 0 mm 547 W/m2
15:29 31.5 °C 17 °C 1009.4 hPa WNW 0.2 km/h 20.9 km/h 41.8% 0 mm 547 W/m2
15:34 31.2 °C 16.9 °C 1009 hPa Calm   20.9 km/h 42.5% 0 mm 650 W/m2
15:39 31 °C 17.2 °C 1009 hPa WNW 0.2 km/h 1.6 km/h 43.7% 0 mm 547 W/m2
15:44 30.9 °C 16.7 °C 1009 hPa WNW 0.2 km/h 3.2 km/h 42.4% 0 mm 626 W/m2
15:49 30.8 °C 16.9 °C 1009 hPa WNW 0.2 km/h 3.2 km/h 43.4% 0 mm 580 W/m2
15:54 30.9 °C 17.4 °C 1009 hPa WNW 0.5 km/h 3.2 km/h 44.6% 0 mm 510 W/m2
15:59 31.1 °C 17.5 °C 1009 hPa NW 2.4 km/h 6.4 km/h 44.4% 0 mm 450 W/m2
16:00 31.1 °C 17.4 °C 1008.7 hPa Calm   6.4 km/h 44% 0 mm 279 W/m2
16:09 31.2 °C 16.9 °C 1008.7 hPa WNW 6.6 km/h 20.9 km/h 42.4% 0 mm 775 W/m2
16:14 31.2 °C 16.9 °C 1008.7 hPa WNW 1.9 km/h 20.9 km/h 42.6% 0 mm 650 W/m2
16:19 31.2 °C 17.1 °C 1008.7 hPa WNW 2.4 km/h 20.9 km/h 42.8% 0 mm 141 W/m2
16:24 31.2 °C 17.4 °C 1008.7 hPa West 1.6 km/h 20.9 km/h 43.7% 0 mm 134 W/m2
16:29 31.3 °C 17.4 °C 1008.7 hPa WSW 1 km/h 20.9 km/h 43.5% 0 mm 172 W/m2
16:34 31.3 °C 17.2 °C 1008.7 hPa WSW 1 km/h 20.9 km/h 42.8% 0 mm 163 W/m2
16:39 31.3 °C 16.8 °C 1008.7 hPa WSW 0.6 km/h 4.8 km/h 41.8% 0 mm 160 W/m2
16:44 31.2 °C 16.9 °C 1008.7 hPa WSW 0.5 km/h 4.8 km/h 42.3% 0 mm 183 W/m2
16:49 31.1 °C 16.7 °C 1008.7 hPa WSW 0.5 km/h 4.8 km/h 42.2% 0 mm 179 W/m2
16:54 30.9 °C 17 °C 1008.7 hPa WSW 0.2 km/h 4.8 km/h 43.3% 0 mm 160 W/m2
16:59 30.9 °C 16.8 °C 1008.7 hPa WSW 0.5 km/h 4.8 km/h 43% 0 mm 153 W/m2
17:04 30.8 °C 17 °C 1008.7 hPa SW 1.4 km/h 9.7 km/h 43.6% 0 mm 200 W/m2
17:09 30.7 °C 16.6 °C 1008.7 hPa SW 1 km/h 9.7 km/h 42.8% 0 mm 197 W/m2
17:14 30.6 °C 16.6 °C 1008.7 hPa SW 0.5 km/h 9.7 km/h 43.2% 0 mm 158 W/m2
17:19 30.6 °C 16.4 °C 1008.7 hPa West 2.9 km/h 14.5 km/h 42.7% 0 mm 121 W/m2
17:24 30.6 °C 16.2 °C 1008.7 hPa WNW 6.3 km/h 16.1 km/h 42% 0 mm 76 W/m2
17:29 30.4 °C 15.9 °C 1008.7 hPa WNW 4.8 km/h 17.7 km/h 41.6% 0 mm 79 W/m2
17:34 30.2 °C 16.2 °C 1008.7 hPa NW 2.1 km/h 17.7 km/h 42.9% 0 mm 79 W/m2
17:39 30.1 °C 15.9 °C 1008.7 hPa NW 3.1 km/h 9.7 km/h 42.5% 0 mm 74 W/m2
17:44 29.9 °C 15.9 °C 1008.7 hPa NW 1.6 km/h 9.7 km/h 42.8% 0 mm 65 W/m2
17:49 29.9 °C 15.7 °C 1008.7 hPa NW 2.9 km/h 14.5 km/h 42.4% 0 mm 56 W/m2
17:54 29.9 °C 15.9 °C 1008.7 hPa NW 1.8 km/h 14.5 km/h 42.8% 0 mm 60 W/m2
17:59 29.9 °C 15.8 °C 1008.7 hPa NNE 0.2 km/h 14.5 km/h 42.6% 0 mm 67 W/m2
18:04 29.9 °C 15.7 °C 1008.4 hPa NE 1 km/h 14.5 km/h 42% 0 mm 70 W/m2
18:09 29.9 °C 15.8 °C 1008.7 hPa NNE 0.2 km/h 6.4 km/h 42.5% 0 mm 72 W/m2
18:14 29.9 °C 15.7 °C 1008.7 hPa NNE 0.3 km/h 6.4 km/h 42% 0 mm 72 W/m2
18:19 29.9 °C 15.6 °C 1008.7 hPa NE 1.8 km/h 6.4 km/h 42% 0 mm 65 W/m2
18:24 29.9 °C 15.7 °C 1008.7 hPa NE 1.8 km/h 6.4 km/h 42.2% 0 mm 60 W/m2
18:29 29.8 °C 15.7 °C 1008.7 hPa North 1.8 km/h 8 km/h 42.3% 0 mm 47 W/m2
18:34 29.8 °C 15.9 °C 1008.7 hPa NW 2.4 km/h 8 km/h 43% 0 mm 39 W/m2
18:39 29.7 °C 15.9 °C 1008.7 hPa NW 1.1 km/h 6.4 km/h 43.4% 0 mm 33 W/m2
18:44 29.7 °C 15.8 °C 1008.7 hPa Calm   6.4 km/h 43.1% 0 mm 32 W/m2
18:49 29.7 °C 15.7 °C 1008.7 hPa NW 0.2 km/h 6.4 km/h 42.7% 0 mm 30 W/m2
18:54 29.7 °C 15.8 °C 1008.7 hPa Calm   6.4 km/h 43.2% 0 mm 28 W/m2
18:59 29.6 °C 16.1 °C 1008.7 hPa NNW 1 km/h 6.4 km/h 44.1% 0 mm 26 W/m2
19:04 29.6 °C 16.4 °C 1008.7 hPa North 1 km/h 6.4 km/h 45.3% 0 mm 25 W/m2
19:09 29.4 °C 16.6 °C 1008.7 hPa North 1 km/h 4.8 km/h 46% 0 mm 19 W/m2
19:14 29.2 °C 16.7 °C 1009 hPa NNE 0.8 km/h 4.8 km/h 46.7% 0 mm 14 W/m2
19:19 29.1 °C 16.6 °C 1009 hPa Calm   4.8 km/h 47% 0 mm 19 W/m2
19:24 28.9 °C 16.7 °C 1009 hPa NNE 0.6 km/h 6.4 km/h 47.7% 0 mm 18 W/m2
19:29 28.8 °C 16.8 °C 1009 hPa NNE 0.2 km/h 6.4 km/h 48.4% 0 mm 16 W/m2
19:34 28.7 °C 17 °C 1009 hPa NNE 0.5 km/h 6.4 km/h 49.3% 0 mm 14 W/m2
19:39 28.5 °C 17.1 °C 1009 hPa Calm   4.8 km/h 50% 0 mm 9 W/m2
19:44 28.4 °C 17 °C 1009 hPa Calm   4.8 km/h 50.2% 0 mm 7 W/m2
19:49 28.2 °C 17.1 °C 1009.4 hPa Calm   4.8 km/h 51% 0 mm 5 W/m2
19:54 28.1 °C 17 °C 1009.4 hPa Calm   4.8 km/h 51% 0 mm 0 W/m2
19:59 27.9 °C 17 °C 1009.4 hPa Calm   4.8 km/h 51.3% 0 mm 0 W/m2
20:00 27.9 °C 17.1 °C 1009.4 hPa Calm   4.8 km/h 52% 0 mm 0 W/m2
20:09 27.7 °C 16.9 °C 1009.4 hPa Calm     52% 0 mm 0 W/m2
20:14 27.6 °C 16.9 °C 1009.7 hPa Calm     52.2% 0 mm 0 W/m2
20:19 27.4 °C 17 °C 1009.7 hPa Calm     53% 0 mm 0 W/m2
20:24 27.3 °C 16.9 °C 1009.7 hPa Calm     53% 0 mm 0 W/m2
20:29 27.2 °C 17.1 °C 1009.7 hPa Calm     53.9% 0 mm 0 W/m2
20:34 27 °C 17.1 °C 1009.7 hPa Calm     54.7% 0 mm 0 W/m2
20:39 26.9 °C 17.3 °C 1009.7 hPa Calm     55.9% 0 mm 0 W/m2
20:44 26.7 °C 17.4 °C 1009.7 hPa Calm     56.6% 0 mm 0 W/m2
20:49 26.6 °C 17.8 °C 1009.7 hPa Calm     58.5% 0 mm 0 W/m2
20:54 26.4 °C 18 °C 1010 hPa Calm     59.6% 0 mm 0 W/m2
20:59 26.3 °C 18 °C 1010 hPa Calm     60% 0 mm 0 W/m2
21:04 26.2 °C 18.1 °C 1010 hPa Calm     60.7% 0 mm 0 W/m2
21:09 26.1 °C 18.2 °C 1010 hPa Calm     61.5% 0 mm 0 W/m2
21:14 26 °C 18.2 °C 1010 hPa Calm     62% 0 mm 0 W/m2
21:19 25.9 °C 18.3 °C 1010 hPa Calm     62.8% 0 mm 0 W/m2
21:24 25.8 °C 18.2 °C 1010.4 hPa Calm     63% 0 mm 0 W/m2
21:29 25.7 °C 18.3 °C 1010.4 hPa Calm     63.9% 0 mm 0 W/m2
21:34 25.6 °C 18.4 °C 1010.4 hPa Calm     64.6% 0 mm 0 W/m2
21:39 25.4 °C 18.4 °C 1010.7 hPa Calm     65% 0 mm 0 W/m2
21:44 25.3 °C 18.3 °C 1010.7 hPa NNE 0.5 km/h 6.4 km/h 65.2% 0 mm 0 W/m2
21:49 25.3 °C 18.6 °C 1010.7 hPa NNE 0.3 km/h 6.4 km/h 66.3% 0 mm 0 W/m2
21:54 25.2 °C 18.7 °C 1011.1 hPa North 0.5 km/h 8 km/h 67.4% 0 mm 0 W/m2
21:59 25.1 °C 18.6 °C 1011.1 hPa NNW 0.2 km/h 8 km/h 67.1% 0 mm 0 W/m2
22:04 25.1 °C 18.3 °C 1011.1 hPa WNW 3.7 km/h 24.1 km/h 66.1% 0 mm 0 W/m2
22:09 25.1 °C 17.9 °C 1011.4 hPa NW 3.7 km/h 24.1 km/h 64.4% 0 mm 0 W/m2
22:14 25.1 °C 17.4 °C 1011.4 hPa NW 0.5 km/h 24.1 km/h 62.1% 0 mm 0 W/m2
22:19 25.1 °C 17.3 °C 1011.4 hPa WNW 1.4 km/h 24.1 km/h 61.8% 0 mm 0 W/m2
22:24 25.1 °C 17.4 °C 1011.4 hPa NW 2.3 km/h 24.1 km/h 62.1% 0 mm 0 W/m2
22:29 25.1 °C 17.8 °C 1011.7 hPa WNW 1.4 km/h 24.1 km/h 63.9% 0 mm 0 W/m2
22:34 25 °C 18.1 °C 1011.7 hPa NW 0.5 km/h 24.1 km/h 65.2% 0 mm 0 W/m2
22:39 24.8 °C 18.1 °C 1011.4 hPa NW 0.3 km/h 6.4 km/h 66.2% 0 mm 0 W/m2
22:44 24.7 °C 18.2 °C 1011.4 hPa NW 0.6 km/h 6.4 km/h 67.2% 0 mm 0 W/m2
22:49 24.4 °C 18.1 °C 1011.4 hPa Calm   6.4 km/h 67.7% 0 mm 0 W/m2
22:54 24.3 °C 18.1 °C 1011.4 hPa Calm   6.4 km/h 68.6% 0 mm 0 W/m2
22:59 24.1 °C 18.4 °C 1011.4 hPa Calm   6.4 km/h 70.3% 0.25 mm 0 W/m2
23:04 23.9 °C 18.6 °C 1011.7 hPa Calm   6.4 km/h 72.2% 0.25 mm 0 W/m2
23:09 23.7 °C 18.9 °C 1011.4 hPa Calm     74.3% 0.25 mm 0 W/m2
23:14 23.5 °C 19.1 °C 1011.4 hPa Calm     76% 0.25 mm 0 W/m2
23:19 23.3 °C 18.8 °C 1011.4 hPa Calm     76% 0.25 mm 0 W/m2
23:24 23.1 °C 18.7 °C 1011.4 hPa Calm     76.3% 0.25 mm 0 W/m2
23:29 22.9 °C 18.7 °C 1011.7 hPa Calm     77.5% 0.25 mm 0 W/m2
23:34 22.8 °C 19 °C 1011.7 hPa Calm     79.2% 0.25 mm 0 W/m2
23:39 22.7 °C 19.1 °C 1011.7 hPa Calm     80.4% 0.25 mm 0 W/m2
23:44 22.6 °C 19.1 °C 1011.7 hPa Calm     81% 0.25 mm 0 W/m2
23:49 22.4 °C 19.2 °C 1011.7 hPa Calm     81.9% 0.25 mm 0 W/m2
23:54 22.4 °C 19.2 °C 1011.7 hPa Calm     82.2% 0.25 mm 0 W/m2
23:59 22.3 °C 19.3 °C 1011.7 hPa Calm     83% 0.25 mm 0 W/m2
Hartford County Weather
Compliments of Weather Underground - 4 mb